Aérodrome :
LOGIN :

S'inscrire | Disclaimer

   EN    FR    IT 

 










Légende :    VFR   VFR Marginal   IFR   IFR Intensif   IFR Très Intensif
Visi : 
Plafond : 
>= 8 km
>= 3000ft
5 à 8 km
1000 à 3000 ft
1500m à 5 km
500 à 1000 ft
800 à 1500m
200 à 500 ft
< 800m
< 200 ft
Symboles :   Orages  Brouillard  Fortes neiges  Fortes précipitations  Vent > 20 kt
SIGMETs :   Divers  Orages  Givrage  Turbulence  Onde Orograph.  Cendres Volcan.







- Altitude de l'aérodrome : 598 ft
- Code IATA : BQH
- Voir les cartes d'approche


EGKB - Biggin Hill

DERNIER METAR :
  • 191420Z 19017KT 2000 RADZ BKN004 BKN010 16/16 Q1012

METARs EXPIRÉS :
  • 191350Z 19016KT 3500 -RADZ BR SCT005 BKN010 16/16 Q1012 RERADZ
  • 191320Z 19016KT 3000 RADZ BR BKN005 16/15 Q1012
  • 191250Z 18015KT 3500 -RA BR BKN007 16/15 Q1012
  • 191220Z 19014KT 8000 -RA BKN011 16/14 Q1012

TAF TAF EGKB
Valide du 19 à 15h jusqu'au 19 à 23h UTC


191414Z 1915/1923 20012KT 9999 BKN010
TEMPO 1915/1923 5000 RA BKN007
PROB30
TEMPO 1915/1919 20015G25KT 2000 +DZ BKN004
PROB40
TEMPO 1919/1923 4000 +RA BKN003
Pas de NOTAMs connus pour ce terrain.
1 SIGMET publié pour la FIR London (EGTT) :
 
Orages noyés dans la masse
EGTT SIGMET 03 VALID 191345/191600 EGRR
EGTT LONDON FIR EMBD TS FCST WI N5109 W00500 - N5148 W00221 - N5105 W00145 - N5100 W00340 - N5030 W00425 - N5024 W00615 - N5109 W00500 TOP FL280 MOV NE 25KT NC=



MET'MAP, la Météo Aéronautique d'un coup d'oeil ! - Copyright ORBIFLY Décembre 2007 - Disclaimer

ORBIFLY MET'MAP TEAM :

Programmation & Développement : Alexandra Zaïnal
Conception & Développement : Baudouin d'Aumeries
Co-Programmation & Développement : Marc-Olivier Méhu
Soutien technique & logistique : Manuel Goepfert

Contact : metmap@orbifly.com




SOURCES & CREDITS :

   NOAA